sensor_id;sensor_type;location;lat;lon;timestamp;P1;durP1;ratioP1;P2;durP2;ratioP2
15486;SDS011;7845;53.698;10.078;2023-06-19T00:00:04;4.80;;;4.23;;
15486;SDS011;7845;53.698;10.078;2023-06-19T00:02:48;5.40;;;4.00;;
15486;SDS011;7845;53.698;10.078;2023-06-19T00:05:15;4.30;;;3.80;;
15486;SDS011;7845;53.698;10.078;2023-06-19T00:07:40;5.10;;;3.77;;
15486;SDS011;7845;53.698;10.078;2023-06-19T00:10:06;4.30;;;3.40;;
15486;SDS011;7845;53.698;10.078;2023-06-19T00:12:33;4.20;;;3.70;;
15486;SDS011;7845;53.698;10.078;2023-06-19T00:14:58;6.10;;;4.73;;
15486;SDS011;7845;53.698;10.078;2023-06-19T00:17:24;4.53;;;3.97;;
15486;SDS011;7845;53.698;10.078;2023-06-19T00:19:52;4.53;;;3.83;;
15486;SDS011;7845;53.698;10.078;2023-06-19T00:22:24;4.90;;;3.80;;
15486;SDS011;7845;53.698;10.078;2023-06-19T00:24:50;5.27;;;4.20;;
15486;SDS011;7845;53.698;10.078;2023-06-19T00:27:17;4.40;;;3.90;;
15486;SDS011;7845;53.698;10.078;2023-06-19T00:29:42;4.87;;;4.13;;
15486;SDS011;7845;53.698;10.078;2023-06-19T00:32:09;5.13;;;4.40;;
15486;SDS011;7845;53.698;10.078;2023-06-19T00:34:34;5.90;;;4.53;;
15486;SDS011;7845;53.698;10.078;2023-06-19T00:37:02;5.63;;;4.97;;
15486;SDS011;7845;53.698;10.078;2023-06-19T00:39:27;4.77;;;4.00;;
15486;SDS011;7845;53.698;10.078;2023-06-19T00:41:54;7.30;;;4.50;;
15486;SDS011;7845;53.698;10.078;2023-06-19T00:44:21;5.13;;;4.27;;
15486;SDS011;7845;53.698;10.078;2023-06-19T00:46:50;4.23;;;3.37;;
15486;SDS011;7845;53.698;10.078;2023-06-19T00:49:20;3.87;;;3.43;;
15486;SDS011;7845;53.698;10.078;2023-06-19T00:51:46;5.53;;;3.30;;
15486;SDS011;7845;53.698;10.078;2023-06-19T00:54:11;4.67;;;4.17;;
15486;SDS011;7845;53.698;10.078;2023-06-19T00:56:37;5.73;;;5.13;;
15486;SDS011;7845;53.698;10.078;2023-06-19T00:59:02;4.97;;;4.47;;
15486;SDS011;7845;53.698;10.078;2023-06-19T01:01:32;5.30;;;4.47;;
15486;SDS011;7845;53.698;10.078;2023-06-19T01:03:58;5.57;;;4.90;;
15486;SDS011;7845;53.698;10.078;2023-06-19T01:06:24;6.43;;;5.40;;
15486;SDS011;7845;53.698;10.078;2023-06-19T01:09:05;6.33;;;4.90;;
15486;SDS011;7845;53.698;10.078;2023-06-19T01:11:36;5.97;;;4.73;;
15486;SDS011;7845;53.698;10.078;2023-06-19T01:14:07;5.60;;;5.10;;
15486;SDS011;7845;53.698;10.078;2023-06-19T01:16:37;4.97;;;4.10;;
15486;SDS011;7845;53.698;10.078;2023-06-19T01:19:04;6.37;;;5.27;;
15486;SDS011;7845;53.698;10.078;2023-06-19T01:21:33;5.37;;;4.30;;
15486;SDS011;7845;53.698;10.078;2023-06-19T01:23:59;5.77;;;4.70;;
15486;SDS011;7845;53.698;10.078;2023-06-19T01:26:24;6.40;;;4.60;;
15486;SDS011;7845;53.698;10.078;2023-06-19T01:28:54;5.30;;;4.57;;
15486;SDS011;7845;53.698;10.078;2023-06-19T01:31:21;5.57;;;4.23;;
15486;SDS011;7845;53.698;10.078;2023-06-19T01:33:55;5.03;;;3.97;;
15486;SDS011;7845;53.698;10.078;2023-06-19T01:36:24;5.50;;;4.63;;
15486;SDS011;7845;53.698;10.078;2023-06-19T01:38:52;4.77;;;4.17;;
15486;SDS011;7845;53.698;10.078;2023-06-19T01:41:21;5.63;;;4.67;;
15486;SDS011;7845;53.698;10.078;2023-06-19T01:43:49;4.90;;;4.17;;
15486;SDS011;7845;53.698;10.078;2023-06-19T01:46:15;5.37;;;4.87;;
15486;SDS011;7845;53.698;10.078;2023-06-19T01:48:40;5.50;;;4.70;;
15486;SDS011;7845;53.698;10.078;2023-06-19T01:51:05;5.57;;;5.00;;
15486;SDS011;7845;53.698;10.078;2023-06-19T01:53:31;5.60;;;4.50;;
15486;SDS011;7845;53.698;10.078;2023-06-19T01:55:57;6.43;;;4.50;;
15486;SDS011;7845;53.698;10.078;2023-06-19T01:58:26;6.03;;;5.00;;
15486;SDS011;7845;53.698;10.078;2023-06-19T02:00:51;5.23;;;4.43;;
15486;SDS011;7845;53.698;10.078;2023-06-19T02:03:16;6.10;;;4.83;;
15486;SDS011;7845;53.698;10.078;2023-06-19T02:05:43;5.67;;;4.87;;
15486;SDS011;7845;53.698;10.078;2023-06-19T02:08:10;7.10;;;4.47;;
15486;SDS011;7845;53.698;10.078;2023-06-19T02:10:36;5.87;;;5.00;;
15486;SDS011;7845;53.698;10.078;2023-06-19T02:13:01;5.03;;;4.50;;
15486;SDS011;7845;53.698;10.078;2023-06-19T02:15:30;6.33;;;4.50;;
15486;SDS011;7845;53.698;10.078;2023-06-19T02:17:55;5.00;;;4.47;;
15486;SDS011;7845;53.698;10.078;2023-06-19T02:20:22;5.63;;;4.27;;
15486;SDS011;7845;53.698;10.078;2023-06-19T02:22:49;4.90;;;4.03;;
15486;SDS011;7845;53.698;10.078;2023-06-19T02:25:15;5.50;;;4.40;;
15486;SDS011;7845;53.698;10.078;2023-06-19T02:27:41;5.63;;;5.03;;
15486;SDS011;7845;53.698;10.078;2023-06-19T02:30:08;5.83;;;4.07;;
15486;SDS011;7845;53.698;10.078;2023-06-19T02:32:35;5.73;;;5.23;;
15486;SDS011;7845;53.698;10.078;2023-06-19T02:35:00;4.40;;;3.83;;
15486;SDS011;7845;53.698;10.078;2023-06-19T02:37:29;7.43;;;5.73;;
15486;SDS011;7845;53.698;10.078;2023-06-19T02:39:55;4.93;;;4.33;;
15486;SDS011;7845;53.698;10.078;2023-06-19T02:42:22;5.80;;;4.40;;
15486;SDS011;7845;53.698;10.078;2023-06-19T02:44:47;4.60;;;4.07;;
15486;SDS011;7845;53.698;10.078;2023-06-19T02:47:14;4.67;;;4.17;;
15486;SDS011;7845;53.698;10.078;2023-06-19T02:49:41;4.93;;;4.37;;
15486;SDS011;7845;53.698;10.078;2023-06-19T02:52:06;6.37;;;4.70;;
15486;SDS011;7845;53.698;10.078;2023-06-19T02:54:32;4.60;;;4.10;;
15486;SDS011;7845;53.698;10.078;2023-06-19T02:56:57;4.83;;;4.33;;
15486;SDS011;7845;53.698;10.078;2023-06-19T02:59:23;4.73;;;4.20;;
15486;SDS011;7845;53.698;10.078;2023-06-19T03:01:48;4.77;;;4.27;;
15486;SDS011;7845;53.698;10.078;2023-06-19T03:04:14;4.43;;;3.70;;
15486;SDS011;7845;53.698;10.078;2023-06-19T03:06:39;7.27;;;4.70;;
15486;SDS011;7845;53.698;10.078;2023-06-19T03:09:06;6.50;;;5.30;;
15486;SDS011;7845;53.698;10.078;2023-06-19T03:11:38;5.30;;;4.67;;
15486;SDS011;7845;53.698;10.078;2023-06-19T03:14:06;5.73;;;5.10;;
15486;SDS011;7845;53.698;10.078;2023-06-19T03:16:35;4.63;;;4.13;;
15486;SDS011;7845;53.698;10.078;2023-06-19T03:19:02;5.53;;;4.40;;
15486;SDS011;7845;53.698;10.078;2023-06-19T03:21:27;5.53;;;4.93;;
15486;SDS011;7845;53.698;10.078;2023-06-19T03:23:53;4.37;;;3.80;;
15486;SDS011;7845;53.698;10.078;2023-06-19T03:26:18;5.60;;;4.90;;
15486;SDS011;7845;53.698;10.078;2023-06-19T03:28:44;4.43;;;4.03;;
15486;SDS011;7845;53.698;10.078;2023-06-19T03:31:13;4.33;;;3.83;;
15486;SDS011;7845;53.698;10.078;2023-06-19T03:33:38;5.23;;;4.50;;
15486;SDS011;7845;53.698;10.078;2023-06-19T03:36:04;5.13;;;4.17;;
15486;SDS011;7845;53.698;10.078;2023-06-19T03:38:30;4.60;;;3.60;;
15486;SDS011;7845;53.698;10.078;2023-06-19T03:40:56;4.80;;;3.80;;
15486;SDS011;7845;53.698;10.078;2023-06-19T03:43:21;6.80;;;5.13;;
15486;SDS011;7845;53.698;10.078;2023-06-19T03:45:48;5.90;;;5.00;;
15486;SDS011;7845;53.698;10.078;2023-06-19T03:48:15;7.03;;;5.80;;
15486;SDS011;7845;53.698;10.078;2023-06-19T03:50:40;5.17;;;4.67;;
15486;SDS011;7845;53.698;10.078;2023-06-19T03:53:08;6.10;;;5.33;;
15486;SDS011;7845;53.698;10.078;2023-06-19T03:55:34;4.97;;;4.23;;
15486;SDS011;7845;53.698;10.078;2023-06-19T03:57:59;6.27;;;5.00;;
15486;SDS011;7845;53.698;10.078;2023-06-19T04:00:24;4.80;;;4.17;;
15486;SDS011;7845;53.698;10.078;2023-06-19T04:02:51;5.73;;;4.93;;
15486;SDS011;7845;53.698;10.078;2023-06-19T04:05:16;6.00;;;5.00;;
15486;SDS011;7845;53.698;10.078;2023-06-19T04:07:42;4.80;;;3.93;;
15486;SDS011;7845;53.698;10.078;2023-06-19T04:10:08;4.53;;;3.83;;
15486;SDS011;7845;53.698;10.078;2023-06-19T04:12:33;5.93;;;4.80;;
15486;SDS011;7845;53.698;10.078;2023-06-19T04:14:59;6.30;;;5.00;;
15486;SDS011;7845;53.698;10.078;2023-06-19T04:17:24;5.93;;;5.03;;
15486;SDS011;7845;53.698;10.078;2023-06-19T04:19:50;5.67;;;4.97;;
15486;SDS011;7845;53.698;10.078;2023-06-19T04:22:15;5.70;;;5.20;;
15486;SDS011;7845;53.698;10.078;2023-06-19T04:24:41;6.10;;;5.13;;
15486;SDS011;7845;53.698;10.078;2023-06-19T04:27:07;5.77;;;5.17;;
15486;SDS011;7845;53.698;10.078;2023-06-19T04:29:36;4.80;;;4.30;;
15486;SDS011;7845;53.698;10.078;2023-06-19T04:32:02;5.83;;;4.43;;
15486;SDS011;7845;53.698;10.078;2023-06-19T04:34:36;4.70;;;4.20;;
15486;SDS011;7845;53.698;10.078;2023-06-19T04:37:01;5.40;;;4.70;;
15486;SDS011;7845;53.698;10.078;2023-06-19T04:39:27;5.70;;;5.10;;
15486;SDS011;7845;53.698;10.078;2023-06-19T04:41:52;5.40;;;4.47;;
15486;SDS011;7845;53.698;10.078;2023-06-19T04:44:17;4.80;;;4.30;;
15486;SDS011;7845;53.698;10.078;2023-06-19T04:46:42;6.03;;;5.17;;
15486;SDS011;7845;53.698;10.078;2023-06-19T04:49:11;5.37;;;4.40;;
15486;SDS011;7845;53.698;10.078;2023-06-19T04:51:39;5.93;;;5.33;;
15486;SDS011;7845;53.698;10.078;2023-06-19T04:54:05;5.47;;;4.30;;
15486;SDS011;7845;53.698;10.078;2023-06-19T04:56:31;5.10;;;4.60;;
15486;SDS011;7845;53.698;10.078;2023-06-19T04:58:57;4.60;;;4.10;;
15486;SDS011;7845;53.698;10.078;2023-06-19T05:01:24;4.30;;;3.67;;
15486;SDS011;7845;53.698;10.078;2023-06-19T05:03:54;5.13;;;4.47;;
15486;SDS011;7845;53.698;10.078;2023-06-19T05:06:26;4.83;;;4.20;;
15486;SDS011;7845;53.698;10.078;2023-06-19T05:08:52;4.60;;;4.07;;
15486;SDS011;7845;53.698;10.078;2023-06-19T05:11:18;5.80;;;5.00;;
15486;SDS011;7845;53.698;10.078;2023-06-19T05:13:43;6.63;;;6.00;;
15486;SDS011;7845;53.698;10.078;2023-06-19T05:16:09;6.30;;;5.43;;
15486;SDS011;7845;53.698;10.078;2023-06-19T05:18:34;6.20;;;5.60;;
15486;SDS011;7845;53.698;10.078;2023-06-19T05:21:00;5.80;;;4.50;;
15486;SDS011;7845;53.698;10.078;2023-06-19T05:23:25;5.40;;;4.83;;
15486;SDS011;7845;53.698;10.078;2023-06-19T05:25:50;5.93;;;5.33;;
15486;SDS011;7845;53.698;10.078;2023-06-19T05:28:16;5.40;;;4.87;;
15486;SDS011;7845;53.698;10.078;2023-06-19T05:30:41;6.60;;;5.90;;
15486;SDS011;7845;53.698;10.078;2023-06-19T05:33:06;5.50;;;4.90;;
15486;SDS011;7845;53.698;10.078;2023-06-19T05:35:32;5.20;;;4.57;;
15486;SDS011;7845;53.698;10.078;2023-06-19T05:37:57;5.03;;;4.50;;
15486;SDS011;7845;53.698;10.078;2023-06-19T05:40:23;4.57;;;4.13;;
15486;SDS011;7845;53.698;10.078;2023-06-19T05:42:48;6.10;;;5.50;;
15486;SDS011;7845;53.698;10.078;2023-06-19T05:45:15;5.87;;;5.27;;
15486;SDS011;7845;53.698;10.078;2023-06-19T05:47:40;5.80;;;5.20;;
15486;SDS011;7845;53.698;10.078;2023-06-19T05:50:06;6.40;;;5.80;;
15486;SDS011;7845;53.698;10.078;2023-06-19T05:52:32;6.63;;;6.03;;
15486;SDS011;7845;53.698;10.078;2023-06-19T05:54:58;6.90;;;6.00;;
15486;SDS011;7845;53.698;10.078;2023-06-19T05:57:23;5.90;;;5.30;;
15486;SDS011;7845;53.698;10.078;2023-06-19T05:59:49;5.80;;;5.17;;
15486;SDS011;7845;53.698;10.078;2023-06-19T06:02:16;5.60;;;5.00;;
15486;SDS011;7845;53.698;10.078;2023-06-19T06:04:44;5.53;;;4.63;;
15486;SDS011;7845;53.698;10.078;2023-06-19T06:07:09;4.93;;;4.40;;
15486;SDS011;7845;53.698;10.078;2023-06-19T06:09:35;6.00;;;5.13;;
15486;SDS011;7845;53.698;10.078;2023-06-19T06:12:00;5.30;;;4.50;;
15486;SDS011;7845;53.698;10.078;2023-06-19T06:14:26;5.00;;;4.50;;
15486;SDS011;7845;53.698;10.078;2023-06-19T06:16:52;3.87;;;3.43;;
15486;SDS011;7845;53.698;10.078;2023-06-19T06:19:19;4.97;;;4.40;;
15486;SDS011;7845;53.698;10.078;2023-06-19T06:21:46;5.20;;;4.50;;
15486;SDS011;7845;53.698;10.078;2023-06-19T06:24:11;4.43;;;3.90;;
15486;SDS011;7845;53.698;10.078;2023-06-19T06:26:38;4.90;;;4.40;;
15486;SDS011;7845;53.698;10.078;2023-06-19T06:29:03;5.20;;;4.23;;
15486;SDS011;7845;53.698;10.078;2023-06-19T06:31:28;4.27;;;3.87;;
15486;SDS011;7845;53.698;10.078;2023-06-19T06:33:54;4.50;;;3.40;;
15486;SDS011;7845;53.698;10.078;2023-06-19T06:36:19;5.30;;;4.57;;
15486;SDS011;7845;53.698;10.078;2023-06-19T06:38:44;5.57;;;5.07;;
15486;SDS011;7845;53.698;10.078;2023-06-19T06:41:11;5.80;;;4.33;;
15486;SDS011;7845;53.698;10.078;2023-06-19T06:43:36;4.90;;;4.40;;
15486;SDS011;7845;53.698;10.078;2023-06-19T06:46:03;5.80;;;4.70;;
15486;SDS011;7845;53.698;10.078;2023-06-19T06:48:31;5.47;;;4.77;;
15486;SDS011;7845;53.698;10.078;2023-06-19T06:50:56;4.50;;;3.83;;
15486;SDS011;7845;53.698;10.078;2023-06-19T06:53:26;5.80;;;5.20;;
15486;SDS011;7845;53.698;10.078;2023-06-19T06:55:53;5.40;;;4.90;;
15486;SDS011;7845;53.698;10.078;2023-06-19T06:58:18;6.77;;;4.03;;
15486;SDS011;7845;53.698;10.078;2023-06-19T07:00:44;6.27;;;4.97;;
15486;SDS011;7845;53.698;10.078;2023-06-19T07:03:11;5.50;;;4.90;;
15486;SDS011;7845;53.698;10.078;2023-06-19T07:05:36;5.50;;;4.93;;
15486;SDS011;7845;53.698;10.078;2023-06-19T07:08:02;7.27;;;6.57;;
15486;SDS011;7845;53.698;10.078;2023-06-19T07:10:30;7.27;;;5.90;;
15486;SDS011;7845;53.698;10.078;2023-06-19T07:12:55;7.20;;;6.50;;
15486;SDS011;7845;53.698;10.078;2023-06-19T07:15:21;7.47;;;6.77;;
15486;SDS011;7845;53.698;10.078;2023-06-19T07:17:46;9.33;;;8.13;;
15486;SDS011;7845;53.698;10.078;2023-06-19T07:20:13;8.07;;;6.90;;
15486;SDS011;7845;53.698;10.078;2023-06-19T07:22:40;7.40;;;6.70;;
15486;SDS011;7845;53.698;10.078;2023-06-19T07:25:06;6.30;;;5.70;;
15486;SDS011;7845;53.698;10.078;2023-06-19T07:27:32;7.33;;;6.30;;
15486;SDS011;7845;53.698;10.078;2023-06-19T07:29:58;7.37;;;6.67;;
15486;SDS011;7845;53.698;10.078;2023-06-19T07:32:23;8.17;;;7.37;;
15486;SDS011;7845;53.698;10.078;2023-06-19T07:34:48;6.77;;;6.07;;
15486;SDS011;7845;53.698;10.078;2023-06-19T07:37:14;7.00;;;6.30;;
15486;SDS011;7845;53.698;10.078;2023-06-19T07:39:45;6.93;;;6.30;;
15486;SDS011;7845;53.698;10.078;2023-06-19T07:42:15;7.50;;;6.80;;
15486;SDS011;7845;53.698;10.078;2023-06-19T07:44:43;7.80;;;7.07;;
15486;SDS011;7845;53.698;10.078;2023-06-19T07:47:09;8.17;;;7.37;;
15486;SDS011;7845;53.698;10.078;2023-06-19T07:49:35;7.43;;;6.63;;
15486;SDS011;7845;53.698;10.078;2023-06-19T07:52:02;6.13;;;5.50;;
15486;SDS011;7845;53.698;10.078;2023-06-19T07:54:28;7.20;;;6.50;;
15486;SDS011;7845;53.698;10.078;2023-06-19T07:56:53;6.27;;;5.67;;
15486;SDS011;7845;53.698;10.078;2023-06-19T07:59:19;6.60;;;5.90;;
15486;SDS011;7845;53.698;10.078;2023-06-19T08:01:44;7.00;;;6.37;;
15486;SDS011;7845;53.698;10.078;2023-06-19T08:04:10;6.10;;;5.50;;
15486;SDS011;7845;53.698;10.078;2023-06-19T08:06:35;6.97;;;6.27;;
15486;SDS011;7845;53.698;10.078;2023-06-19T08:09:01;7.20;;;6.23;;
15486;SDS011;7845;53.698;10.078;2023-06-19T08:11:27;5.63;;;5.13;;
15486;SDS011;7845;53.698;10.078;2023-06-19T08:13:52;5.97;;;5.37;;
15486;SDS011;7845;53.698;10.078;2023-06-19T08:16:17;7.23;;;6.50;;
15486;SDS011;7845;53.698;10.078;2023-06-19T08:18:44;5.93;;;5.30;;
15486;SDS011;7845;53.698;10.078;2023-06-19T08:21:10;7.07;;;6.00;;
15486;SDS011;7845;53.698;10.078;2023-06-19T08:23:37;5.90;;;5.30;;
15486;SDS011;7845;53.698;10.078;2023-06-19T08:26:08;5.67;;;5.07;;
15486;SDS011;7845;53.698;10.078;2023-06-19T08:28:35;6.00;;;5.40;;
15486;SDS011;7845;53.698;10.078;2023-06-19T08:31:01;5.60;;;5.00;;
15486;SDS011;7845;53.698;10.078;2023-06-19T08:33:26;6.87;;;5.73;;
15486;SDS011;7845;53.698;10.078;2023-06-19T08:35:51;7.13;;;6.43;;
15486;SDS011;7845;53.698;10.078;2023-06-19T08:38:19;7.80;;;7.10;;
15486;SDS011;7845;53.698;10.078;2023-06-19T08:40:46;6.90;;;5.97;;
15486;SDS011;7845;53.698;10.078;2023-06-19T08:43:15;5.80;;;5.20;;
15486;SDS011;7845;53.698;10.078;2023-06-19T08:45:40;6.37;;;5.50;;
15486;SDS011;7845;53.698;10.078;2023-06-19T08:48:05;6.10;;;5.50;;
15486;SDS011;7845;53.698;10.078;2023-06-19T08:50:35;5.53;;;4.90;;
15486;SDS011;7845;53.698;10.078;2023-06-19T08:53:00;5.67;;;5.07;;
15486;SDS011;7845;53.698;10.078;2023-06-19T08:55:28;6.23;;;5.63;;
15486;SDS011;7845;53.698;10.078;2023-06-19T08:57:53;5.10;;;4.60;;
15486;SDS011;7845;53.698;10.078;2023-06-19T09:00:23;7.10;;;6.40;;
15486;SDS011;7845;53.698;10.078;2023-06-19T09:02:50;6.93;;;6.23;;
15486;SDS011;7845;53.698;10.078;2023-06-19T09:05:16;6.83;;;6.20;;
15486;SDS011;7845;53.698;10.078;2023-06-19T09:07:43;6.83;;;6.23;;
15486;SDS011;7845;53.698;10.078;2023-06-19T09:10:19;7.50;;;6.30;;
15486;SDS011;7845;53.698;10.078;2023-06-19T09:12:58;6.23;;;5.63;;
15486;SDS011;7845;53.698;10.078;2023-06-19T09:15:32;5.70;;;5.10;;
15486;SDS011;7845;53.698;10.078;2023-06-19T09:18:10;8.10;;;5.97;;
15486;SDS011;7845;53.698;10.078;2023-06-19T09:20:39;6.00;;;5.40;;
15486;SDS011;7845;53.698;10.078;2023-06-19T09:23:11;6.30;;;5.70;;
15486;SDS011;7845;53.698;10.078;2023-06-19T09:25:47;7.50;;;6.50;;
15486;SDS011;7845;53.698;10.078;2023-06-19T09:28:23;6.73;;;6.13;;
15486;SDS011;7845;53.698;10.078;2023-06-19T09:30:54;6.30;;;5.70;;
15486;SDS011;7845;53.698;10.078;2023-06-19T09:33:25;5.57;;;5.07;;
15486;SDS011;7845;53.698;10.078;2023-06-19T09:35:53;6.50;;;5.90;;
15486;SDS011;7845;53.698;10.078;2023-06-19T09:38:21;6.37;;;5.77;;
15486;SDS011;7845;53.698;10.078;2023-06-19T09:40:49;6.00;;;5.40;;
15486;SDS011;7845;53.698;10.078;2023-06-19T09:43:24;6.00;;;5.40;;
15486;SDS011;7845;53.698;10.078;2023-06-19T09:45:55;5.27;;;4.77;;
15486;SDS011;7845;53.698;10.078;2023-06-19T09:48:29;8.23;;;7.43;;
15486;SDS011;7845;53.698;10.078;2023-06-19T09:51:07;6.70;;;6.10;;
15486;SDS011;7845;53.698;10.078;2023-06-19T09:53:37;5.80;;;5.30;;
15486;SDS011;7845;53.698;10.078;2023-06-19T09:56:03;6.00;;;5.40;;
15486;SDS011;7845;53.698;10.078;2023-06-19T09:58:29;5.60;;;5.10;;
15486;SDS011;7845;53.698;10.078;2023-06-19T10:00:56;8.10;;;5.30;;
15486;SDS011;7845;53.698;10.078;2023-06-19T10:03:29;5.60;;;5.10;;
15486;SDS011;7845;53.698;10.078;2023-06-19T10:06:00;5.43;;;4.90;;
15486;SDS011;7845;53.698;10.078;2023-06-19T10:08:31;6.53;;;5.20;;
15486;SDS011;7845;53.698;10.078;2023-06-19T10:11:04;6.20;;;5.60;;
15486;SDS011;7845;53.698;10.078;2023-06-19T10:13:31;5.70;;;5.20;;
15486;SDS011;7845;53.698;10.078;2023-06-19T10:15:58;7.60;;;6.90;;
15486;SDS011;7845;53.698;10.078;2023-06-19T10:18:24;5.70;;;5.20;;
15486;SDS011;7845;53.698;10.078;2023-06-19T10:20:51;4.93;;;4.43;;
15486;SDS011;7845;53.698;10.078;2023-06-19T10:23:19;5.07;;;4.57;;
15486;SDS011;7845;53.698;10.078;2023-06-19T10:25:55;5.90;;;5.30;;
15486;SDS011;7845;53.698;10.078;2023-06-19T10:28:28;6.80;;;5.80;;
15486;SDS011;7845;53.698;10.078;2023-06-19T10:30:59;5.40;;;4.90;;
15486;SDS011;7845;53.698;10.078;2023-06-19T10:33:27;7.00;;;6.40;;
15486;SDS011;7845;53.698;10.078;2023-06-19T10:35:54;7.23;;;6.40;;
15486;SDS011;7845;53.698;10.078;2023-06-19T10:38:20;7.00;;;6.20;;
15486;SDS011;7845;53.698;10.078;2023-06-19T10:40:46;6.90;;;6.20;;
15486;SDS011;7845;53.698;10.078;2023-06-19T10:43:12;6.20;;;5.63;;
15486;SDS011;7845;53.698;10.078;2023-06-19T10:45:45;7.40;;;6.63;;
15486;SDS011;7845;53.698;10.078;2023-06-19T10:48:20;6.40;;;5.80;;
15486;SDS011;7845;53.698;10.078;2023-06-19T10:50:49;5.43;;;4.93;;
15486;SDS011;7845;53.698;10.078;2023-06-19T10:53:25;5.80;;;5.20;;
15486;SDS011;7845;53.698;10.078;2023-06-19T10:56:01;4.93;;;4.53;;
15486;SDS011;7845;53.698;10.078;2023-06-19T10:58:27;5.47;;;4.97;;
15486;SDS011;7845;53.698;10.078;2023-06-19T11:00:54;4.87;;;4.37;;
15486;SDS011;7845;53.698;10.078;2023-06-19T11:03:20;7.00;;;5.83;;
15486;SDS011;7845;53.698;10.078;2023-06-19T11:05:47;5.63;;;5.10;;
15486;SDS011;7845;53.698;10.078;2023-06-19T11:08:17;7.37;;;6.67;;
15486;SDS011;7845;53.698;10.078;2023-06-19T11:10:44;6.23;;;5.63;;
15486;SDS011;7845;53.698;10.078;2023-06-19T11:13:13;6.93;;;6.33;;
15486;SDS011;7845;53.698;10.078;2023-06-19T11:15:40;6.57;;;5.97;;
15486;SDS011;7845;53.698;10.078;2023-06-19T11:18:07;7.77;;;7.07;;
15486;SDS011;7845;53.698;10.078;2023-06-19T11:20:42;6.97;;;6.37;;
15486;SDS011;7845;53.698;10.078;2023-06-19T11:23:09;8.87;;;6.87;;
15486;SDS011;7845;53.698;10.078;2023-06-19T11:25:38;7.03;;;6.10;;
15486;SDS011;7845;53.698;10.078;2023-06-19T11:28:10;6.70;;;6.10;;
15486;SDS011;7845;53.698;10.078;2023-06-19T11:30:36;6.77;;;6.17;;
15486;SDS011;7845;53.698;10.078;2023-06-19T11:33:02;7.30;;;6.00;;
15486;SDS011;7845;53.698;10.078;2023-06-19T11:35:34;6.10;;;5.60;;
15486;SDS011;7845;53.698;10.078;2023-06-19T11:38:01;6.73;;;5.50;;
15486;SDS011;7845;53.698;10.078;2023-06-19T11:40:26;5.50;;;5.00;;
15486;SDS011;7845;53.698;10.078;2023-06-19T11:42:54;5.20;;;4.70;;
15486;SDS011;7845;53.698;10.078;2023-06-19T11:45:20;7.20;;;6.50;;
15486;SDS011;7845;53.698;10.078;2023-06-19T11:47:47;6.57;;;5.97;;
15486;SDS011;7845;53.698;10.078;2023-06-19T11:50:16;5.10;;;4.60;;
15486;SDS011;7845;53.698;10.078;2023-06-19T11:52:43;6.70;;;6.10;;
15486;SDS011;7845;53.698;10.078;2023-06-19T11:55:12;5.90;;;5.30;;
15486;SDS011;7845;53.698;10.078;2023-06-19T11:57:40;7.43;;;6.67;;
15486;SDS011;7845;53.698;10.078;2023-06-19T12:00:15;7.57;;;6.83;;
15486;SDS011;7845;53.698;10.078;2023-06-19T12:02:43;6.60;;;6.00;;
15486;SDS011;7845;53.698;10.078;2023-06-19T12:05:09;6.20;;;5.60;;
15486;SDS011;7845;53.698;10.078;2023-06-19T12:07:36;5.40;;;4.90;;
15486;SDS011;7845;53.698;10.078;2023-06-19T12:10:03;5.20;;;4.70;;
15486;SDS011;7845;53.698;10.078;2023-06-19T12:12:30;5.30;;;4.80;;
15486;SDS011;7845;53.698;10.078;2023-06-19T12:14:56;5.77;;;5.10;;
15486;SDS011;7845;53.698;10.078;2023-06-19T12:17:21;6.50;;;5.90;;
15486;SDS011;7845;53.698;10.078;2023-06-19T12:19:47;6.23;;;5.63;;
15486;SDS011;7845;53.698;10.078;2023-06-19T12:22:13;4.97;;;4.40;;
15486;SDS011;7845;53.698;10.078;2023-06-19T12:24:39;5.00;;;4.50;;
15486;SDS011;7845;53.698;10.078;2023-06-19T12:27:05;4.53;;;4.10;;
15486;SDS011;7845;53.698;10.078;2023-06-19T12:29:30;5.10;;;4.60;;
15486;SDS011;7845;53.698;10.078;2023-06-19T12:32:00;4.37;;;3.97;;
15486;SDS011;7845;53.698;10.078;2023-06-19T12:34:27;5.20;;;4.67;;
15486;SDS011;7845;53.698;10.078;2023-06-19T12:36:53;4.50;;;3.93;;
15486;SDS011;7845;53.698;10.078;2023-06-19T12:39:19;4.77;;;3.83;;
15486;SDS011;7845;53.698;10.078;2023-06-19T12:41:45;4.43;;;3.90;;
15486;SDS011;7845;53.698;10.078;2023-06-19T12:44:10;4.50;;;3.80;;
15486;SDS011;7845;53.698;10.078;2023-06-19T12:46:35;4.10;;;3.70;;
15486;SDS011;7845;53.698;10.078;2023-06-19T12:49:04;4.07;;;3.67;;
15486;SDS011;7845;53.698;10.078;2023-06-19T12:51:30;5.00;;;4.43;;
15486;SDS011;7845;53.698;10.078;2023-06-19T12:53:55;7.20;;;4.53;;
15486;SDS011;7845;53.698;10.078;2023-06-19T12:56:20;5.60;;;5.10;;
15486;SDS011;7845;53.698;10.078;2023-06-19T12:58:46;6.97;;;5.40;;
15486;SDS011;7845;53.698;10.078;2023-06-19T13:01:11;5.67;;;5.10;;
15486;SDS011;7845;53.698;10.078;2023-06-19T13:03:37;6.23;;;5.43;;
15486;SDS011;7845;53.698;10.078;2023-06-19T13:06:03;6.20;;;5.60;;
15486;SDS011;7845;53.698;10.078;2023-06-19T13:08:28;6.90;;;5.77;;
15486;SDS011;7845;53.698;10.078;2023-06-19T13:10:53;6.03;;;5.43;;
15486;SDS011;7845;53.698;10.078;2023-06-19T13:13:19;5.37;;;4.47;;
15486;SDS011;7845;53.698;10.078;2023-06-19T13:15:44;6.63;;;4.00;;
15486;SDS011;7845;53.698;10.078;2023-06-19T13:18:10;4.90;;;4.40;;
15486;SDS011;7845;53.698;10.078;2023-06-19T13:20:35;5.87;;;5.27;;
15486;SDS011;7845;53.698;10.078;2023-06-19T13:23:01;4.80;;;4.30;;
15486;SDS011;7845;53.698;10.078;2023-06-19T13:25:26;5.00;;;4.50;;
15486;SDS011;7845;53.698;10.078;2023-06-19T13:27:53;4.20;;;3.80;;
15486;SDS011;7845;53.698;10.078;2023-06-19T13:30:19;4.53;;;4.10;;
15486;SDS011;7845;53.698;10.078;2023-06-19T13:32:44;5.00;;;3.93;;
15486;SDS011;7845;53.698;10.078;2023-06-19T13:35:09;3.83;;;3.43;;
15486;SDS011;7845;53.698;10.078;2023-06-19T13:37:36;4.43;;;3.93;;
15486;SDS011;7845;53.698;10.078;2023-06-19T13:40:04;4.37;;;3.87;;
15486;SDS011;7845;53.698;10.078;2023-06-19T13:42:30;4.90;;;4.23;;
15486;SDS011;7845;53.698;10.078;2023-06-19T13:44:55;6.10;;;4.47;;
15486;SDS011;7845;53.698;10.078;2023-06-19T13:47:22;5.17;;;4.67;;
15486;SDS011;7845;53.698;10.078;2023-06-19T13:49:50;5.00;;;4.50;;
15486;SDS011;7845;53.698;10.078;2023-06-19T13:52:16;6.90;;;5.10;;
15486;SDS011;7845;53.698;10.078;2023-06-19T13:54:42;4.93;;;4.43;;
15486;SDS011;7845;53.698;10.078;2023-06-19T13:57:07;4.93;;;3.80;;
15486;SDS011;7845;53.698;10.078;2023-06-19T13:59:34;5.03;;;4.07;;
15486;SDS011;7845;53.698;10.078;2023-06-19T14:01:59;5.17;;;4.17;;
15486;SDS011;7845;53.698;10.078;2023-06-19T14:04:25;4.50;;;3.37;;
15486;SDS011;7845;53.698;10.078;2023-06-19T14:06:50;6.40;;;4.50;;
15486;SDS011;7845;53.698;10.078;2023-06-19T14:09:15;4.53;;;4.07;;
15486;SDS011;7845;53.698;10.078;2023-06-19T14:11:40;3.80;;;3.33;;
15486;SDS011;7845;53.698;10.078;2023-06-19T14:14:06;4.10;;;3.53;;
15486;SDS011;7845;53.698;10.078;2023-06-19T14:16:32;5.77;;;4.40;;
15486;SDS011;7845;53.698;10.078;2023-06-19T14:18:58;5.07;;;4.43;;
15486;SDS011;7845;53.698;10.078;2023-06-19T14:21:23;4.63;;;3.40;;
15486;SDS011;7845;53.698;10.078;2023-06-19T14:23:49;4.40;;;3.53;;
15486;SDS011;7845;53.698;10.078;2023-06-19T14:26:14;5.40;;;4.00;;
15486;SDS011;7845;53.698;10.078;2023-06-19T14:28:40;4.90;;;3.67;;
15486;SDS011;7845;53.698;10.078;2023-06-19T14:31:06;3.40;;;3.03;;
15486;SDS011;7845;53.698;10.078;2023-06-19T14:33:31;4.90;;;3.03;;
15486;SDS011;7845;53.698;10.078;2023-06-19T14:35:58;4.50;;;3.27;;
15486;SDS011;7845;53.698;10.078;2023-06-19T14:38:24;4.07;;;3.30;;
15486;SDS011;7845;53.698;10.078;2023-06-19T14:40:52;4.80;;;3.53;;
15486;SDS011;7845;53.698;10.078;2023-06-19T14:43:18;3.60;;;2.90;;
15486;SDS011;7845;53.698;10.078;2023-06-19T14:45:43;3.97;;;3.27;;